ADDS METAR Data INFO
IDs: Format: Raw Decoded Include TAF

Data at: 1934 UTC 18 Feb 2018

KBMT 181915Z AUTO 17004KT 10SM SCT013 BKN019 OVC029 23/19 A3012 RMK AO2 T02330189
KBMT 181855Z AUTO 16008KT 10SM BKN013 OVC020 23/19 A3013 RMK AO2 T02320186
KBMT 181835Z AUTO 15004KT 10SM BKN009 OVC013 22/19 A3014 RMK AO2 T02230187
KBMT 181815Z AUTO 12006KT 10SM OVC009 22/19 A3015 RMK AO2 T02200186
KBMT 181755Z AUTO 13006KT 10SM OVC009 22/18 A3016 RMK AO2 T02210184 10223 20163
KBMT 181735Z AUTO 13005KT 10SM OVC007 22/19 A3016 RMK AO2 T02150185
KBMT 181715Z AUTO 12005KT 10SM OVC007 21/18 A3017 RMK AO2 T02100180
KBMT 181655Z AUTO 12006KT 10SM OVC007 21/18 A3017 RMK AO2 T02090178
KBMT 181635Z AUTO 11005KT 10SM BKN007 OVC016 21/18 A3018 RMK AO2 T02080178
KBMT 181615Z AUTO 12006KT 7SM BKN007 OVC014 20/18 A3018 RMK AO2 T02030176
KBMT 181550Z AUTO 11005KT 7SM OVC005 20/17 A3018 RMK AO2 T01980173
KBMT 181535Z AUTO 10004KT 5SM BR OVC005 19/17 A3017 RMK AO2 T01910170
KBMT 181515Z AUTO 10006KT 4SM BR OVC003 18/17 A3017 RMK AO2 T01840166
KBMT 181455Z AUTO 08006KT 4SM BR OVC003 18/16 A3017 RMK AO2 T01780162
KBMT 181435Z AUTO 10004KT 3SM BR OVC003 17/16 A3017 RMK AO2 T01730160
KBMT 181415Z AUTO 10003KT 2SM BR OVC003 17/16 A3016 RMK AO2 T01700158
KBMT 181355Z AUTO 09004KT 1 3/4SM BR OVC003 17/16 A3016 RMK AO2 T01660155
KBMT 181335Z AUTO 09003KT 1 3/4SM BR OVC003 17/16 A3015 RMK AO2 T01650155
KBMT 181315Z AUTO 00000KT 3/4SM BR OVC003 17/16 A3015 RMK AO2 T01650155
KBMT 181255Z AUTO 06004KT 1 1/2SM BR OVC003 16/15 A3014 RMK AO2 T01630153
KBMT 181235Z AUTO 05004KT 2 1/2SM BR OVC003 17/15 A3014 RMK AO2 T01650153
KBMT 181215Z AUTO 08004KT 3SM BR OVC003 17/15 A3014 RMK AO2 T01650153
KBMT 181155Z AUTO 05004KT 3SM BR OVC003 17/15 A3014 RMK AO2 T01650153 10165 20160
KBMT 181135Z AUTO 08003KT 3SM BR OVC003 16/15 A3014 RMK AO2 T01630152
KBMT 181115Z AUTO 05005KT 3SM BR OVC003 16/15 A3014 RMK AO2 T01630152
KBMT 181055Z AUTO 05004KT 3SM BR OVC003 16/15 A3014 RMK AO2 T01630152
KBMT 181035Z AUTO 03004KT 3SM BR OVC003 16/15 A3014 RMK AO2 T01620151
KBMT 181015Z AUTO 05004KT 3SM BR OVC003 16/15 A3013 RMK AO2 T01620150
KBMT 180955Z AUTO 04004KT 5SM BR OVC003 16/15 A3013 RMK AO2 T01620150
KBMT 180935Z AUTO 05004KT 7SM OVC005 16/15 A3013 RMK AO2 T01630149
KBMT 180915Z AUTO 06003KT 7SM OVC005 16/15 A3013 RMK AO2 T01620147
KBMT 180855Z AUTO 06004KT 7SM OVC005 16/15 A3013 RMK AO2 T01610146
KBMT 180835Z AUTO 04004KT 10SM OVC005 16/15 A3013 RMK AO2 T01610146
KBMT 180815Z AUTO 05004KT 10SM OVC005 16/15 A3013 RMK AO2 T01610145
KBMT 180755Z AUTO 03005KT 10SM OVC005 16/15 A3014 RMK AO2 T01600145
KBMT 180735Z AUTO 03005KT 10SM SCT005 OVC010 16/15 A3014 RMK AO2 T01600145
KBMT 180715Z AUTO 02006KT 10SM OVC010 16/15 A3014 RMK AO2 T01600145
KBMT 180655Z AUTO 01005KT 7SM BKN006 OVC011 16/15 A3014 RMK AO2 T01600145
KBMT 180635Z AUTO 02003KT 10SM BKN006 OVC011 16/15 A3015 RMK AO2 T01600145
KBMT 180615Z AUTO 03005KT 7SM OVC006 16/15 A3014 RMK AO2 T01600145
KBMT 180555Z AUTO 03005KT 10SM BKN006 OVC011 16/15 A3014 RMK AO2 T01610145 10228 20157 402740157
KBMT 180535Z AUTO 03006KT 10SM SCT006 OVC011 16/15 A3015 RMK AO2 T01620146
KBMT 180515Z AUTO 02003KT 10SM SCT006 OVC011 16/15 A3015 RMK AO2 T01630148
KBMT 180455Z AUTO 03005KT 10SM OVC011 17/15 A3015 RMK AO2 T01650150
KBMT 180435Z AUTO 05008KT 10SM SCT005 OVC011 17/15 A3015 RMK AO2 T01650148
KBMT 180415Z AUTO 01004KT 7SM SCT005 BKN015 OVC020 17/15 A3016 RMK AO2 T01650150
KBMT 180355Z AUTO 07004KT 7SM OVC015 16/15 A3015 RMK AO2 T01630150
KBMT 180335Z AUTO 04005KT 5SM RA OVC015 16/15 A3016 RMK AO2 T01620148
KBMT 180315Z AUTO 04005KT 5SM DZ SCT007 OVC015 16/15 A3016 RMK AO2 T01610147
KBMT 180255Z AUTO 03007KT 7SM -RA SCT007 BKN015 OVC021 16/15 A3016 RMK AO2 T01590145
KBMT 180235Z AUTO 02006KT 7SM SCT007 BKN013 OVC018 16/14 A3017 RMK AO2 T01570143
KBMT 180215Z AUTO 01008KT 10SM -DZ SCT007 BKN013 OVC020 16/15 A3016 RMK AO2 T01610145
KBMT 180155Z AUTO 01008KT 10SM RA SCT007 OVC011 17/15 A3016 RMK AO2 T01660149
KBMT 180135Z AUTO 36009KT 10SM DZ OVC007 18/16 A3015 RMK AO2 T01750160
KBMT 180115Z AUTO 35009G16KT 10SM BKN007 OVC025 18/16 A3014 RMK AO2 T01810160
KBMT 180055Z AUTO 00000KT 10SM RA BKN025 BKN036 OVC045 22/20 A3012 RMK AO2 T02200198
KBMT 180035Z AUTO 19007KT 10SM SCT038 BKN047 OVC060 22/20 A3011 RMK AO2 T02200199
KBMT 180015Z AUTO 17007KT 10SM -RA SCT043 BKN050 OVC095 22/20 A3010 RMK AO2 T02240196
KBMT 172355Z AUTO 18007KT 10SM SCT041 SCT060 OVC095 23/20 A3010 RMK AO2 T02280195 10273 20215
KBMT 172335Z AUTO 19007KT 10SM SCT020 SCT060 OVC085 23/20 A3009 RMK AO2 T02310195
KBMT 172315Z AUTO 19008KT 10SM BKN022 BKN060 OVC085 24/20 A3009 RMK AO2 T02350195
KBMT 172255Z AUTO 20006KT 10SM BKN022 BKN029 OVC050 24/20 A3009 RMK AO2 T02400200
KBMT 172235Z AUTO 24003KT 10SM SCT018 BKN023 OVC030 24/20 A3009 RMK AO2 T02370204
KBMT 172215Z AUTO 24004KT 10SM RA BKN020 BKN025 OVC049 24/20 A3009 RMK AO2 T02370201
KBMT 172155Z AUTO 25004KT 10SM BKN022 OVC065 24/20 A3008 RMK AO2 T02410201
KBMT 172135Z AUTO 22005KT 10SM BKN022 BKN027 BKN060 24/20 A3008 RMK AO2 T02440200
KBMT 172115Z AUTO 26004KT 10SM SCT022 24/21 A3007 RMK AO2 T02420205
KBMT 172055Z AUTO 00000KT 10SM SCT024 SCT031 SCT038 24/21 A3007 RMK AO2 T02350206
KBMT 172035Z AUTO 30003KT 4SM RA BKN022 OVC029 22/20 A3008 RMK AO2 T02160200
KBMT 172015Z AUTO 31009G19KT 7SM +RA SCT019 BKN026 OVC070 23/19 A3008 RMK AO2 T02280193
KBMT 171955Z AUTO 20009KT 10SM SCT030 BKN036 OVC070 25/19 A3008 RMK AO2 T02520186
KBMT 171935Z AUTO 22007KT 10SM BKN032 BKN040 OVC049 25/18 A3008 RMK AO2 T02530181
KBMT 171915Z AUTO 22012G17KT 10SM SCT036 OVC060 26/17 A3009 RMK AO2 T02560173
KBMT 171855Z AUTO 23012KT 10SM SCT029 BKN060 OVC080 26/17 A3009 RMK AO2 T02610171
KBMT 171835Z AUTO 21013G17KT 10SM SCT029 SCT070 OVC080 26/18 A3010 RMK AO2 T02630180
KBMT 171815Z AUTO 22012G17KT 10SM BKN070 BKN080 27/18 A3011 RMK AO2 T02660179
KBMT 171755Z AUTO 21010G13KT 10SM SCT022 SCT030 OVC080 26/18 A3012 RMK AO2 T02600180 10274 20195
KBMT 171735Z AUTO 24010G14KT 10SM BKN022 BKN026 OVC044 26/19 A3013 RMK AO2 T02610193
KBMT 171715Z AUTO 22011G16KT 10SM BKN018 BKN023 OVC070 26/20 A3013 RMK AO2 T02620195
KBMT 171655Z AUTO 23010G19KT 10SM BKN016 BKN025 BKN033 25/19 A3013 RMK AO2 T02530192
KBMT 171635Z AUTO 23009KT 10SM BKN014 OVC021 25/20 A3013 RMK AO2 T02460196
KBMT 171615Z AUTO 20007KT 10SM BKN012 BKN017 OVC023 24/20 A3013 RMK AO2 T02360199
KBMT 171555Z AUTO 21009KT 10SM BKN009 OVC014 23/20 A3013 RMK AO2 T02300196
KBMT 171535Z AUTO 20008KT 10SM BKN007 OVC014 23/20 A3012 RMK AO2 T02260198
KBMT 171515Z AUTO 21006KT 10SM OVC005 22/20 A3012 RMK AO2 T02170198
KBMT 171455Z AUTO 22005KT 10SM OVC003 21/20 A3012 RMK AO2 T02140200
KBMT 171435Z AUTO 22006KT 10SM OVC003 21/20 A3011 RMK AO2 T02100198
KBMT 171415Z AUTO 24004KT 5SM BR OVC003 21/20 A3011 RMK AO2 T02060196
KBMT 171355Z AUTO 23003KT 3SM BR OVC003 20/19 A3010 RMK AO2 T02040194
KBMT 171335Z AUTO 00000KT 1/2SM FG OVC003 20/19 A3009 RMK AO2 T02000191
KBMT 171315Z AUTO 00000KT 1 3/4SM BR OVC003 20/19 A3009 RMK AO2 T01980188
KBMT 171255Z AUTO 00000KT 3SM BR OVC003 20/19 A3007 RMK AO2 T01970187
KBMT 171235Z AUTO 00000KT 5SM BR OVC003 20/19 A3007 RMK AO2 T01960187
KBMT 171215Z AUTO 00000KT 2SM BR OVC003 20/19 A3006 RMK AO2 T01950186
KBMT 171155Z AUTO 22003KT 2SM BR OVC003 20/19 A3005 RMK AO2 T01950185 10200 20193
KBMT 171135Z AUTO 21003KT 2 1/2SM BR OVC003 19/18 A3004 RMK AO2 T01930184
KBMT 171115Z AUTO 18007KT 1SM BR OVC003 19/19 A3003 RMK AO2 T01930185
KBMT 171055Z AUTO 18007KT 3/4SM BR OVC003 19/19 A3004 RMK AO2 T01930185
KBMT 171035Z AUTO 18007KT 150V210 3/4SM BR OVC003 19/19 A3004 RMK AO2 T01940185
KBMT 171015Z AUTO 19005KT 1/2SM FG OVC003 20/19 A3004 RMK AO2 T01950185
KBMT 170955Z AUTO 20005KT 1/2SM FG OVC003 20/19 A3005 RMK AO2 T01950185
KBMT 170935Z AUTO 19005KT 1/2SM FG OVC003 20/19 A3005 RMK AO2 T01950185
KBMT 170915Z AUTO 19004KT 3/4SM BR OVC003 20/19 A3006 RMK AO2 T01950185
KBMT 170855Z AUTO 18005KT 3/4SM BR OVC003 20/19 A3006 RMK AO2 T01970187
KBMT 170835Z AUTO 18005KT 1 1/2SM BR OVC003 20/19 A3007 RMK AO2 T01970187
KBMT 170815Z AUTO 17003KT 3/4SM BR OVC003 20/19 A3007 RMK AO2 T02000190
KBMT 170755Z AUTO 18004KT 3/4SM BR OVC003 20/19 A3008 RMK AO2 T02000190
KBMT 170735Z AUTO 18003KT 1 1/4SM BR OVC003 20/19 A3009 RMK AO2 T02000190